WRC538 OMDB-VAAH
Flight info
| Callsign | WRC538 |
|---|---|
| Flight time | N/A |
| Altitude | 34000 |
| Route | IVURO M677 KUSEN A791 LAKIV N894 TELEM G210 VASLA |
| Aircraft | B738/M-SDFGIRWY/LB1 |
Departure
| Time | 2026-04-26 11:29 |
|---|---|
| Airport | Dubai International Airport (OMDB) |
Arrival
| Time | N/A |
|---|---|
| Airport | Sardar Vallabh Patel International Airport (VAAH) |
| Time | Latitude | Longitude | Altitude | Speed | Heading |
|---|---|---|---|---|---|
| 2026-04-26 10:51 | 25.25633 | 55.37504 | 46 ft | 0 kts | 122° |
| 2026-04-26 11:16 | 25.25637 | 55.37497 | 46 ft | 2 kts | 122° |
| 2026-04-26 11:16 | 25.25645 | 55.37483 | 46 ft | 2 kts | 122° |
| 2026-04-26 11:17 | 25.25653 | 55.37468 | 46 ft | 2 kts | 132° |
| 2026-04-26 11:17 | 25.25666 | 55.37460 | 46 ft | 2 kts | 173° |
| 2026-04-26 11:17 | 25.25679 | 55.37462 | 46 ft | 0 kts | 206° |
| 2026-04-26 11:17 | 25.25684 | 55.37466 | 46 ft | 1 kts | 213° |
| 2026-04-26 11:18 | 25.25686 | 55.37467 | 46 ft | 0 kts | 211° |
| 2026-04-26 11:25 | 25.25668 | 55.37455 | 46 ft | 5 kts | 211° |
| 2026-04-26 11:25 | 25.25618 | 55.37422 | 46 ft | 10 kts | 211° |
| 2026-04-26 11:25 | 25.25542 | 55.37371 | 46 ft | 13 kts | 211° |
| 2026-04-26 11:25 | 25.25472 | 55.37378 | 46 ft | 10 kts | 153° |
| 2026-04-26 11:26 | 25.25392 | 55.37387 | 46 ft | 12 kts | 161° |
| 2026-04-26 11:26 | 25.25323 | 55.37467 | 46 ft | 16 kts | 121° |
| 2026-04-26 11:26 | 25.25256 | 55.37588 | 48 ft | 20 kts | 121° |
| 2026-04-26 11:26 | 25.25171 | 55.37742 | 49 ft | 26 kts | 121° |
| 2026-04-26 11:27 | 25.25074 | 55.37914 | 50 ft | 22 kts | 122° |
| 2026-04-26 11:27 | 25.24995 | 55.38055 | 51 ft | 17 kts | 121° |
| 2026-04-26 11:27 | 25.24936 | 55.38118 | 52 ft | 7 kts | 175° |
| 2026-04-26 11:27 | 25.24884 | 55.38096 | 52 ft | 11 kts | 208° |
| 2026-04-26 11:28 | 25.24829 | 55.38005 | 53 ft | 13 kts | 276° |
| 2026-04-26 11:28 | 25.24843 | 55.37963 | 52 ft | 0 kts | 299° |
| 2026-04-26 11:28 | 25.24861 | 55.37929 | 51 ft | 25 kts | 301° |
| 2026-04-26 11:29 | 25.25094 | 55.37510 | 48 ft | 102 kts | 301° |
| 2026-04-26 11:29 | 25.25586 | 55.36620 | 48 ft | 164 kts | 300° |
| 2026-04-26 11:29 | 25.26196 | 55.35545 | 738 ft | 165 kts | 303° |
| 2026-04-26 11:29 | 25.26821 | 55.34464 | 1456 ft | 175 kts | 301° |
| 2026-04-26 11:30 | 25.27441 | 55.33305 | 2163 ft | 182 kts | 301° |
| 2026-04-26 11:30 | 25.27895 | 55.32473 | 2571 ft | 191 kts | 302° |
| 2026-04-26 11:30 | 25.28888 | 55.30779 | 3406 ft | 208 kts | 310° |
| 2026-04-26 11:30 | 25.30040 | 55.29794 | 4122 ft | 217 kts | 336° |
| 2026-04-26 11:31 | 25.31571 | 55.29496 | 4755 ft | 235 kts | 356° |
| 2026-04-26 11:31 | 25.33230 | 55.29549 | 5598 ft | 238 kts | 358° |
| 2026-04-26 11:31 | 25.34893 | 55.29601 | 6368 ft | 244 kts | 357° |
| 2026-04-26 11:31 | 25.36614 | 55.29637 | 6817 ft | 253 kts | 357° |
| 2026-04-26 11:32 | 25.38394 | 55.29741 | 6947 ft | 254 kts | 5° |
| 2026-04-26 11:32 | 25.40081 | 55.30403 | 7118 ft | 275 kts | 31° |
| 2026-04-26 11:32 | 25.41515 | 55.31930 | 7693 ft | 293 kts | 47° |
| 2026-04-26 11:32 | 25.42807 | 55.33722 | 8351 ft | 304 kts | 49° |
| 2026-04-26 11:33 | 25.44131 | 55.35572 | 9137 ft | 310 kts | 49° |
| 2026-04-26 11:33 | 25.45469 | 55.37417 | 10049 ft | 310 kts | 49° |
| 2026-04-26 11:33 | 25.46844 | 55.39299 | 10637 ft | 324 kts | 49° |
| 2026-04-26 11:33 | 25.48297 | 55.41285 | 11193 ft | 338 kts | 49° |
| 2026-04-26 11:34 | 25.49768 | 55.43387 | 11699 ft | 354 kts | 54° |
| 2026-04-26 11:34 | 25.50932 | 55.45869 | 12132 ft | 373 kts | 69° |
| 2026-04-26 11:34 | 25.51557 | 55.48709 | 12591 ft | 389 kts | 82° |
| 2026-04-26 11:34 | 25.51582 | 55.51757 | 12943 ft | 405 kts | 97° |
| 2026-04-26 11:35 | 25.50756 | 55.54761 | 13370 ft | 412 kts | 118° |
| 2026-04-26 11:35 | 25.49340 | 55.57465 | 14396 ft | 408 kts | 122° |
| 2026-04-26 11:35 | 25.47851 | 55.60121 | 15243 ft | 411 kts | 123° |
| 2026-04-26 11:35 | 25.46819 | 55.61939 | 15758 ft | 415 kts | 123° |
| 2026-04-26 11:36 | 25.44775 | 55.65561 | 16792 ft | 421 kts | 122° |
| 2026-04-26 11:36 | 25.43422 | 55.68431 | 17517 ft | 427 kts | 116° |
| 2026-04-26 11:36 | 25.42314 | 55.71477 | 18247 ft | 433 kts | 110° |
| 2026-04-26 11:36 | 25.41481 | 55.74611 | 18906 ft | 439 kts | 106° |
| 2026-04-26 11:37 | 25.40768 | 55.77826 | 19597 ft | 443 kts | 105° |
| 2026-04-26 11:37 | 25.40073 | 55.81123 | 20269 ft | 448 kts | 104° |
| 2026-04-26 11:37 | 25.39366 | 55.84486 | 20923 ft | 453 kts | 105° |
| 2026-04-26 11:37 | 25.38647 | 55.87893 | 21574 ft | 457 kts | 105° |
| 2026-04-26 11:38 | 25.38165 | 55.90167 | 21979 ft | 460 kts | 105° |
| 2026-04-26 11:38 | 25.37179 | 55.94796 | 22793 ft | 467 kts | 105° |
| 2026-04-26 11:38 | 25.36430 | 55.98302 | 23384 ft | 471 kts | 105° |
| 2026-04-26 11:38 | 25.35685 | 56.01784 | 23912 ft | 476 kts | 105° |
| 2026-04-26 11:39 | 25.34917 | 56.05370 | 24431 ft | 481 kts | 105° |
| 2026-04-26 11:39 | 25.34145 | 56.08964 | 24937 ft | 486 kts | 105° |
| 2026-04-26 11:39 | 25.33354 | 56.12643 | 25504 ft | 489 kts | 105° |
| 2026-04-26 11:39 | 25.32680 | 56.16333 | 25988 ft | 494 kts | 100° |
| 2026-04-26 11:40 | 25.32250 | 56.20088 | 26540 ft | 498 kts | 97° |
| 2026-04-26 11:40 | 25.31931 | 56.23875 | 27012 ft | 502 kts | 96° |
| 2026-04-26 11:40 | 25.31721 | 56.26678 | 27382 ft | 504 kts | 96° |
| 2026-04-26 11:40 | 25.31432 | 56.30577 | 27826 ft | 509 kts | 96° |
| 2026-04-26 11:41 | 25.31136 | 56.34439 | 28284 ft | 512 kts | 96° |
| 2026-04-26 11:42 | 25.30073 | 56.61839 | 31993 ft | 513 kts | 89° |
| 2026-04-26 11:43 | 25.29972 | 56.65601 | 32489 ft | 512 kts | 89° |
| 2026-04-26 11:43 | 25.29865 | 56.69527 | 32764 ft | 515 kts | 88° |
| 2026-04-26 11:43 | 25.29642 | 56.77417 | 32791 ft | 514 kts | 89° |
| 2026-04-26 11:44 | 25.29404 | 56.85244 | 32789 ft | 511 kts | 89° |
| 2026-04-26 11:44 | 25.29172 | 56.93073 | 32789 ft | 512 kts | 88° |
| 2026-04-26 11:45 | 25.28938 | 57.00912 | 32784 ft | 510 kts | 88° |
| 2026-04-26 11:45 | 25.28700 | 57.08708 | 32779 ft | 510 kts | 88° |
| 2026-04-26 11:46 | 25.28463 | 57.16501 | 32783 ft | 510 kts | 88° |
| 2026-04-26 11:46 | 25.28246 | 57.24306 | 32781 ft | 507 kts | 88° |
| 2026-04-26 11:47 | 25.28033 | 57.32064 | 32782 ft | 506 kts | 88° |
| 2026-04-26 11:47 | 25.27816 | 57.39817 | 32779 ft | 507 kts | 88° |
| 2026-04-26 11:48 | 25.27593 | 57.47555 | 32780 ft | 506 kts | 88° |
| 2026-04-26 11:48 | 25.27366 | 57.55250 | 32782 ft | 504 kts | 88° |
| 2026-04-26 11:49 | 25.27135 | 57.62997 | 32779 ft | 504 kts | 88° |
| 2026-04-26 11:49 | 25.26900 | 57.70717 | 32775 ft | 504 kts | 89° |
| 2026-04-26 11:50 | 25.26662 | 57.78414 | 32777 ft | 503 kts | 89° |
| 2026-04-26 11:50 | 25.26403 | 57.86088 | 32778 ft | 502 kts | 89° |
| 2026-04-26 11:51 | 25.26121 | 57.93765 | 32776 ft | 501 kts | 90° |
| 2026-04-26 11:51 | 25.25838 | 58.01433 | 32772 ft | 499 kts | 89° |
| 2026-04-26 11:52 | 25.25602 | 58.07805 | 32761 ft | 499 kts | 89° |
| 2026-04-26 11:52 | 25.25268 | 58.16733 | 32759 ft | 500 kts | 89° |
| 2026-04-26 11:53 | 25.24977 | 58.24387 | 32750 ft | 500 kts | 89° |
| 2026-04-26 11:54 | 25.24537 | 58.35827 | 32759 ft | 501 kts | 90° |
| 2026-04-26 11:54 | 25.24234 | 58.43525 | 32764 ft | 499 kts | 89° |
| 2026-04-26 11:55 | 25.23931 | 58.51138 | 32760 ft | 500 kts | 89° |
| 2026-04-26 11:55 | 25.23624 | 58.58796 | 32759 ft | 499 kts | 89° |
| 2026-04-26 11:56 | 25.23315 | 58.66400 | 32760 ft | 499 kts | 90° |
| 2026-04-26 11:56 | 25.22998 | 58.74054 | 32758 ft | 500 kts | 90° |
| 2026-04-26 11:57 | 25.22680 | 58.81692 | 32755 ft | 500 kts | 90° |
| 2026-04-26 11:57 | 25.22356 | 58.89341 | 32746 ft | 499 kts | 90° |
| 2026-04-26 11:58 | 25.22028 | 58.96959 | 32751 ft | 498 kts | 90° |
| 2026-04-26 11:58 | 25.21699 | 59.04570 | 32750 ft | 499 kts | 90° |
| 2026-04-26 11:59 | 25.21367 | 59.12165 | 32750 ft | 497 kts | 90° |
| 2026-04-26 11:59 | 25.21030 | 59.19764 | 32748 ft | 497 kts | 90° |
| 2026-04-26 12:00 | 25.20689 | 59.27381 | 32742 ft | 498 kts | 90° |
| 2026-04-26 12:00 | 25.20348 | 59.34863 | 32739 ft | 496 kts | 90° |
| 2026-04-26 12:01 | 25.19990 | 59.42469 | 32734 ft | 496 kts | 90° |
| 2026-04-26 12:01 | 25.19619 | 59.50044 | 32736 ft | 496 kts | 90° |
| 2026-04-26 12:02 | 25.19249 | 59.57601 | 32734 ft | 495 kts | 90° |
| 2026-04-26 12:02 | 25.18873 | 59.65146 | 32736 ft | 494 kts | 91° |
| 2026-04-26 12:03 | 25.18496 | 59.72715 | 32740 ft | 496 kts | 91° |
| 2026-04-26 12:03 | 25.18111 | 59.80296 | 32754 ft | 495 kts | 91° |
| 2026-04-26 12:04 | 25.17725 | 59.87848 | 32751 ft | 495 kts | 91° |
| 2026-04-26 12:04 | 25.17336 | 59.95399 | 32754 ft | 493 kts | 91° |
| 2026-04-26 12:05 | 25.16944 | 60.02911 | 32759 ft | 493 kts | 91° |
| 2026-04-26 12:05 | 25.16547 | 60.10474 | 32770 ft | 494 kts | 91° |
| 2026-04-26 12:06 | 25.16145 | 60.18019 | 32766 ft | 491 kts | 92° |
| 2026-04-26 12:06 | 25.15732 | 60.25507 | 32754 ft | 491 kts | 92° |
| 2026-04-26 12:07 | 25.15313 | 60.32983 | 32752 ft | 489 kts | 92° |
| 2026-04-26 12:07 | 25.14893 | 60.40470 | 32743 ft | 487 kts | 92° |
| 2026-04-26 12:08 | 25.14471 | 60.47902 | 32747 ft | 489 kts | 93° |
| 2026-04-26 12:08 | 25.14043 | 60.55371 | 32741 ft | 489 kts | 93° |
| 2026-04-26 12:09 | 25.13614 | 60.62803 | 32740 ft | 482 kts | 93° |
| 2026-04-26 12:09 | 25.13199 | 60.69836 | 32748 ft | 483 kts | 94° |
| 2026-04-26 12:10 | 25.12754 | 60.77210 | 32745 ft | 482 kts | 94° |
| 2026-04-26 12:10 | 25.12310 | 60.84555 | 32748 ft | 481 kts | 94° |
| 2026-04-26 12:11 | 25.11864 | 60.91849 | 32741 ft | 478 kts | 94° |
| 2026-04-26 12:11 | 25.11412 | 60.99172 | 32738 ft | 478 kts | 94° |
| 2026-04-26 12:12 | 25.10960 | 61.06458 | 32739 ft | 477 kts | 94° |
| 2026-04-26 12:12 | 25.10506 | 61.13721 | 32737 ft | 480 kts | 94° |
| 2026-04-26 12:13 | 25.10043 | 61.21063 | 32736 ft | 479 kts | 94° |
| 2026-04-26 12:13 | 25.09581 | 61.28326 | 32739 ft | 480 kts | 94° |
| 2026-04-26 12:14 | 25.09111 | 61.35664 | 32743 ft | 480 kts | 94° |
| 2026-04-26 12:14 | 25.08636 | 61.43042 | 32748 ft | 481 kts | 94° |
| 2026-04-26 12:15 | 25.08158 | 61.50378 | 32751 ft | 482 kts | 94° |
| 2026-04-26 12:15 | 25.07686 | 61.57710 | 32747 ft | 483 kts | 93° |
| 2026-04-26 12:16 | 25.07247 | 61.65096 | 32749 ft | 484 kts | 94° |
| 2026-04-26 12:16 | 25.06807 | 61.72509 | 32748 ft | 485 kts | 93° |
| 2026-04-26 12:17 | 25.06323 | 61.79890 | 32742 ft | 485 kts | 96° |
| 2026-04-26 12:17 | 25.05259 | 61.87162 | 32736 ft | 483 kts | 100° |
| 2026-04-26 12:18 | 25.03985 | 61.94424 | 32735 ft | 484 kts | 101° |
| 2026-04-26 12:18 | 25.02728 | 62.01694 | 32740 ft | 484 kts | 100° |
| 2026-04-26 12:19 | 25.01495 | 62.08953 | 32738 ft | 485 kts | 100° |
| 2026-04-26 12:19 | 25.00261 | 62.16251 | 32740 ft | 485 kts | 99° |
| 2026-04-26 12:20 | 24.99033 | 62.23523 | 32742 ft | 485 kts | 99° |
| 2026-04-26 12:20 | 24.97796 | 62.30833 | 32741 ft | 485 kts | 99° |
| 2026-04-26 12:21 | 24.96560 | 62.38119 | 32741 ft | 485 kts | 99° |
| 2026-04-26 12:21 | 24.95325 | 62.45381 | 32740 ft | 486 kts | 99° |
| 2026-04-26 12:22 | 24.94081 | 62.52675 | 32742 ft | 484 kts | 99° |
| 2026-04-26 12:22 | 24.92841 | 62.59930 | 32741 ft | 484 kts | 99° |
| 2026-04-26 12:23 | 24.91592 | 62.67210 | 32742 ft | 484 kts | 100° |
| 2026-04-26 12:23 | 24.90343 | 62.74466 | 32741 ft | 483 kts | 100° |
| 2026-04-26 12:24 | 24.89096 | 62.81694 | 32745 ft | 484 kts | 100° |
| 2026-04-26 12:24 | 24.87838 | 62.88959 | 32746 ft | 484 kts | 100° |
| 2026-04-26 12:25 | 24.85947 | 62.99851 | 32743 ft | 485 kts | 99° |
| 2026-04-26 12:25 | 24.84682 | 63.07104 | 32748 ft | 483 kts | 100° |
| 2026-04-26 12:26 | 24.83423 | 63.14302 | 32746 ft | 481 kts | 100° |
| 2026-04-26 12:26 | 24.82148 | 63.21571 | 32749 ft | 481 kts | 100° |
| 2026-04-26 12:27 | 24.80904 | 63.28639 | 32749 ft | 481 kts | 100° |
| 2026-04-26 12:27 | 24.79634 | 63.35835 | 32750 ft | 479 kts | 100° |
| 2026-04-26 12:28 | 24.78355 | 63.43061 | 32747 ft | 481 kts | 99° |
| 2026-04-26 12:28 | 24.77080 | 63.50250 | 32750 ft | 480 kts | 100° |
| 2026-04-26 12:29 | 24.75804 | 63.57415 | 32751 ft | 480 kts | 100° |
| 2026-04-26 12:30 | 24.73877 | 63.68204 | 32747 ft | 478 kts | 100° |
| 2026-04-26 12:30 | 24.72595 | 63.75354 | 32747 ft | 478 kts | 100° |
| 2026-04-26 12:31 | 24.70669 | 63.86054 | 32747 ft | 477 kts | 100° |
| 2026-04-26 12:31 | 24.69379 | 63.93200 | 32747 ft | 477 kts | 100° |
| 2026-04-26 12:32 | 24.68084 | 64.00356 | 32747 ft | 478 kts | 100° |
| 2026-04-26 12:33 | 24.66136 | 64.11074 | 32743 ft | 477 kts | 100° |
| 2026-04-26 12:33 | 24.64835 | 64.18205 | 32748 ft | 476 kts | 100° |
| 2026-04-26 12:34 | 24.63538 | 64.25299 | 32750 ft | 474 kts | 100° |
| 2026-04-26 12:34 | 24.62241 | 64.32370 | 32750 ft | 474 kts | 100° |
| 2026-04-26 12:35 | 24.60932 | 64.39493 | 32750 ft | 475 kts | 100° |
| 2026-04-26 12:35 | 24.59629 | 64.46562 | 32747 ft | 474 kts | 100° |
| 2026-04-26 12:36 | 24.58326 | 64.53611 | 32747 ft | 473 kts | 100° |
| 2026-04-26 12:36 | 24.57013 | 64.60693 | 32749 ft | 474 kts | 100° |
| 2026-04-26 12:37 | 24.55707 | 64.67721 | 32749 ft | 472 kts | 101° |
| 2026-04-26 12:37 | 24.54388 | 64.74793 | 32756 ft | 473 kts | 101° |
| 2026-04-26 12:38 | 24.53086 | 64.81806 | 32760 ft | 470 kts | 100° |
| 2026-04-26 12:38 | 24.52216 | 64.88959 | 32768 ft | 471 kts | 95° |
| 2026-04-26 12:39 | 24.51612 | 64.96078 | 32771 ft | 470 kts | 94° |
| 2026-04-26 12:39 | 24.50995 | 65.03229 | 32767 ft | 471 kts | 94° |
| 2026-04-26 12:40 | 24.50357 | 65.10307 | 32761 ft | 469 kts | 94° |
| 2026-04-26 12:40 | 24.49705 | 65.17425 | 32752 ft | 469 kts | 95° |
| 2026-04-26 12:41 | 24.49044 | 65.24547 | 32762 ft | 469 kts | 95° |
| 2026-04-26 12:41 | 24.48380 | 65.31659 | 32758 ft | 469 kts | 95° |
| 2026-04-26 12:42 | 24.47716 | 65.38721 | 32756 ft | 469 kts | 94° |
| 2026-04-26 12:42 | 24.47040 | 65.45865 | 32752 ft | 468 kts | 95° |
| 2026-04-26 12:43 | 24.46370 | 65.52912 | 32749 ft | 468 kts | 95° |
| 2026-04-26 12:43 | 24.45689 | 65.60029 | 32748 ft | 468 kts | 94° |
| 2026-04-26 12:44 | 24.45007 | 65.67122 | 32750 ft | 467 kts | 95° |
| 2026-04-26 12:44 | 24.44323 | 65.74205 | 32749 ft | 467 kts | 95° |
| 2026-04-26 12:45 | 24.43639 | 65.81262 | 32750 ft | 467 kts | 95° |
| 2026-04-26 12:45 | 24.42950 | 65.88329 | 32749 ft | 466 kts | 95° |
| 2026-04-26 12:46 | 24.42257 | 65.95398 | 32757 ft | 467 kts | 95° |
| 2026-04-26 12:46 | 24.41558 | 66.02491 | 32750 ft | 466 kts | 95° |
| 2026-04-26 12:47 | 24.40863 | 66.09524 | 32752 ft | 466 kts | 95° |
| 2026-04-26 12:47 | 24.40161 | 66.16578 | 32755 ft | 466 kts | 95° |
| 2026-04-26 12:48 | 24.39454 | 66.23666 | 32755 ft | 466 kts | 95° |
| 2026-04-26 12:48 | 24.38750 | 66.30689 | 32755 ft | 466 kts | 95° |
| 2026-04-26 12:49 | 24.38039 | 66.37736 | 32749 ft | 466 kts | 95° |
| 2026-04-26 12:49 | 24.37324 | 66.44795 | 32748 ft | 465 kts | 95° |
| 2026-04-26 12:50 | 24.36612 | 66.51786 | 32751 ft | 465 kts | 95° |
| 2026-04-26 12:50 | 24.35890 | 66.58843 | 32750 ft | 465 kts | 95° |
| 2026-04-26 12:51 | 24.35169 | 66.65861 | 32755 ft | 464 kts | 95° |
| 2026-04-26 12:51 | 24.34449 | 66.72857 | 32755 ft | 464 kts | 95° |
| 2026-04-26 12:52 | 24.33720 | 66.79887 | 32758 ft | 464 kts | 95° |
| 2026-04-26 12:52 | 24.32988 | 66.86903 | 32755 ft | 463 kts | 95° |
| 2026-04-26 12:53 | 24.32258 | 66.93883 | 32744 ft | 463 kts | 95° |
| 2026-04-26 12:53 | 24.31524 | 67.00872 | 32743 ft | 463 kts | 95° |
| 2026-04-26 12:54 | 24.30776 | 67.07878 | 32750 ft | 463 kts | 96° |
| 2026-04-26 12:54 | 24.30025 | 67.14848 | 32751 ft | 464 kts | 95° |
| 2026-04-26 12:55 | 24.29265 | 67.21872 | 32752 ft | 463 kts | 95° |
| 2026-04-26 12:55 | 24.28506 | 67.28867 | 32750 ft | 464 kts | 95° |
| 2026-04-26 12:56 | 24.27744 | 67.35868 | 32748 ft | 462 kts | 95° |
| 2026-04-26 12:56 | 24.26979 | 67.42860 | 32748 ft | 461 kts | 95° |
| 2026-04-26 12:57 | 24.26210 | 67.49866 | 32743 ft | 462 kts | 96° |
| 2026-04-26 12:57 | 24.25439 | 67.56847 | 32740 ft | 462 kts | 95° |
| 2026-04-26 12:58 | 24.24322 | 67.66932 | 32738 ft | 463 kts | 96° |
| 2026-04-26 12:58 | 24.23555 | 67.73924 | 32740 ft | 463 kts | 96° |
| 2026-04-26 12:59 | 24.22783 | 67.80799 | 32741 ft | 462 kts | 96° |
| 2026-04-26 12:59 | 24.21995 | 67.87763 | 32735 ft | 463 kts | 96° |
| 2026-04-26 13:00 | 24.21206 | 67.94730 | 32733 ft | 463 kts | 96° |
| 2026-04-26 13:00 | 24.20410 | 68.01751 | 32735 ft | 463 kts | 96° |
| 2026-04-26 13:01 | 24.19617 | 68.08718 | 32746 ft | 461 kts | 96° |
| 2026-04-26 13:01 | 24.18822 | 68.15665 | 32751 ft | 461 kts | 96° |
| 2026-04-26 13:02 | 24.18040 | 68.22598 | 32745 ft | 462 kts | 96° |
| 2026-04-26 13:02 | 24.17174 | 68.29557 | 32751 ft | 463 kts | 96° |
| 2026-04-26 13:03 | 24.16380 | 68.36557 | 32713 ft | 465 kts | 96° |
| 2026-04-26 13:03 | 24.15757 | 68.43601 | 32676 ft | 466 kts | 93° |
| 2026-04-26 13:04 | 24.15482 | 68.47182 | 32305 ft | 470 kts | 94° |
| 2026-04-26 13:04 | 24.15240 | 68.50723 | 31645 ft | 467 kts | 92° |
| 2026-04-26 13:04 | 24.15079 | 68.54191 | 31241 ft | 458 kts | 92° |
| 2026-04-26 13:04 | 24.14986 | 68.56299 | 31013 ft | 452 kts | 92° |
| 2026-04-26 13:05 | 24.14898 | 68.58265 | 30789 ft | 447 kts | 92° |
| 2026-04-26 13:05 | 24.14726 | 68.61602 | 30285 ft | 442 kts | 93° |
| 2026-04-26 13:05 | 24.14485 | 68.64923 | 29683 ft | 439 kts | 94° |
| 2026-04-26 13:06 | 24.14096 | 68.68218 | 29031 ft | 438 kts | 99° |
| 2026-04-26 13:06 | 24.13524 | 68.71494 | 28273 ft | 438 kts | 101° |
| 2026-04-26 13:06 | 24.12944 | 68.74764 | 27107 ft | 448 kts | 99° |
| 2026-04-26 13:06 | 24.12367 | 68.78104 | 26722 ft | 437 kts | 101° |
| 2026-04-26 13:07 | 24.11617 | 68.81252 | 26791 ft | 418 kts | 108° |
| 2026-04-26 13:07 | 24.10621 | 68.84196 | 26454 ft | 410 kts | 110° |
| 2026-04-26 13:07 | 24.10318 | 68.85037 | 26251 ft | 411 kts | 111° |
| 2026-04-26 13:08 | 24.10278 | 68.85149 | 26221 ft | 411 kts | 111° |
| 2026-04-26 13:08 | 24.09259 | 68.88071 | 25279 ft | 419 kts | 109° |
| 2026-04-26 13:08 | 24.08401 | 68.90868 | 24392 ft | 425 kts | 106° |
| 2026-04-26 13:09 | 24.07590 | 68.93988 | 23805 ft | 421 kts | 104° |
| 2026-04-26 13:09 | 24.06883 | 68.97047 | 23389 ft | 413 kts | 102° |
| 2026-04-26 13:09 | 24.06419 | 69.00086 | 23009 ft | 404 kts | 95° |
| 2026-04-26 13:09 | 24.06385 | 69.03157 | 22246 ft | 406 kts | 82° |
| 2026-04-26 13:10 | 24.07222 | 69.06098 | 20884 ft | 420 kts | 57° |
| 2026-04-26 13:10 | 24.09516 | 69.07995 | 19631 ft | 425 kts | 14° |
| 2026-04-26 13:10 | 24.12421 | 69.07795 | 18385 ft | 438 kts | 338° |
| 2026-04-26 13:10 | 24.14894 | 69.05782 | 17343 ft | 441 kts | 315° |
| 2026-04-26 13:11 | 24.16915 | 69.03417 | 17389 ft | 416 kts | 310° |
| 2026-04-26 13:11 | 24.18400 | 69.00700 | 16778 ft | 413 kts | 298° |
| 2026-04-26 13:11 | 24.19801 | 68.98019 | 16561 ft | 398 kts | 303° |
| 2026-04-26 13:11 | 24.21212 | 68.95450 | 16034 ft | 394 kts | 300° |
| 2026-04-26 13:12 | 24.22457 | 68.92794 | 15183 ft | 399 kts | 295° |
| 2026-04-26 13:12 | 24.23694 | 68.90067 | 14088 ft | 408 kts | 300° |
| 2026-04-26 13:12 | 24.25159 | 68.87415 | 13005 ft | 411 kts | 302° |
| 2026-04-26 13:12 | 24.26616 | 68.84703 | 11388 ft | 422 kts | 300° |
| 2026-04-26 13:13 | 24.27920 | 68.81872 | 10166 ft | 419 kts | 295° |
| 2026-04-26 13:13 | 24.29078 | 68.79046 | 9980 ft | 390 kts | 296° |
| 2026-04-26 13:13 | 24.30303 | 68.76475 | 9740 ft | 372 kts | 300° |
| 2026-04-26 13:13 | 24.31497 | 68.74281 | 9730 ft | 352 kts | 302° |
| 2026-04-26 13:14 | 24.32803 | 68.72024 | 9322 ft | 347 kts | 303° |
| 2026-04-26 13:14 | 24.34089 | 68.69753 | 8433 ft | 358 kts | 300° |
| 2026-04-26 13:14 | 24.34679 | 68.68599 | 8015 ft | 361 kts | 298° |
| 2026-04-26 13:14 | 24.35809 | 68.66126 | 7522 ft | 355 kts | 294° |
| 2026-04-26 13:15 | 24.36808 | 68.63708 | 7304 ft | 341 kts | 294° |
| 2026-04-26 13:15 | 24.37825 | 68.61373 | 6759 ft | 339 kts | 296° |
| 2026-04-26 13:15 | 24.38899 | 68.59068 | 6190 ft | 338 kts | 297° |
| 2026-04-26 13:15 | 24.39635 | 68.57577 | 5856 ft | 336 kts | 298° |
| 2026-04-26 13:16 | 24.41201 | 68.54647 | 5236 ft | 330 kts | 301° |
| 2026-04-26 13:16 | 24.42347 | 68.52500 | 4718 ft | 327 kts | 296° |
| 2026-04-26 13:16 | 24.43313 | 68.50242 | 4160 ft | 325 kts | 291° |
| 2026-04-26 13:16 | 24.44124 | 68.47948 | 3667 ft | 321 kts | 291° |
| 2026-04-26 13:17 | 24.46165 | 68.43820 | 3328 ft | 293 kts | 296° |
| 2026-04-26 13:17 | 24.47063 | 68.41848 | 2914 ft | 289 kts | 294° |
| 2026-04-26 13:18 | 24.48719 | 68.37930 | 2439 ft | 271 kts | 294° |
| 2026-04-26 13:18 | 24.49550 | 68.36089 | 1976 ft | 273 kts | 295° |
| 2026-04-26 13:18 | 24.51133 | 68.32352 | 1353 ft | 260 kts | 290° |
| 2026-04-26 13:19 | 24.51834 | 68.30558 | 1238 ft | 248 kts | 292° |
| 2026-04-26 13:19 | 24.52550 | 68.28886 | 1156 ft | 236 kts | 293° |
| 2026-04-26 13:19 | 24.53231 | 68.27299 | 1060 ft | 224 kts | 294° |
| 2026-04-26 13:19 | 24.53898 | 68.25792 | 946 ft | 213 kts | 293° |
| 2026-04-26 13:20 | 24.54556 | 68.24349 | 815 ft | 203 kts | 294° |
| 2026-04-26 13:20 | 24.55192 | 68.22990 | 438 ft | 204 kts | 293° |
| 2026-04-26 13:20 | 24.55509 | 68.21615 | 291 ft | 175 kts | 274° |
| 2026-04-26 13:20 | 24.55619 | 68.20361 | 92 ft | 156 kts | 274° |
| 2026-04-26 13:21 | 24.55736 | 68.19259 | 34 ft | 124 kts | 279° |
| 2026-04-26 13:21 | 24.55796 | 68.18731 | 27 ft | 90 kts | 263° |
| 2026-04-26 13:21 | 24.55726 | 68.18198 | 40 ft | 15 kts | 265° |
| 2026-04-26 13:21 | 24.55725 | 68.18180 | 40 ft | 0 kts | 265° |